America — WD15630 — position and weather

sailwx.info

Track history (hours):
 
Tides and Currents Weather Stations Pressure Air Temp Water Temp Dewpoint Dewpoint Depression Visibility Wind Speed Wind Dir Waves Ship Positions

America

Last reported at 2017-Sep-27 02:41 UTC. Time now 2017-Oct-18 16:20 UTC.
Position N 32°44' W 091°05'.
Warning: this ship's position is 21 days out of date.

Length 80 m; draft 2.4 m.

Type: Passenger vessel. MMSI: 367710540.

Date/timePositionNaut miles runAvg speedWind from/ knotsBaromVisibWave heightAir tempDewpointWater temp
2017-Sep-27 02:41N 32°44' W 091°05'4 6.0
2017-Sep-27 01:59N 32°40' W 091°07'4 7.4
2017-Sep-27 01:31N 32°37' W 091°09'5 8.4
2017-Sep-27 00:54N 32°33' W 091°06'3 7.6
2017-Sep-27 00:31N 32°30' W 091°07'4 8.5
2017-Sep-27 00:01N 32°27' W 091°04'4 8.7
2017-Sep-26 23:30N 32°25' W 090°60'4 7.4
2017-Sep-26 23:00N 32°21' W 090°59'4 8.8
2017-Sep-26 22:30N 32°20' W 090°54'1 1.9
2017-Sep-26 22:00N 32°21' W 090°53'0 0.0
2017-Sep-26 21:28N 32°21' W 090°53'0 0.0
2017-Sep-26 20:58N 32°21' W 090°53'0 0.0
2017-Sep-26 20:28N 32°21' W 090°53'0 0.0
2017-Sep-26 19:58N 32°21' W 090°53'0 0.0
2017-Sep-26 19:28N 32°21' W 090°53'0 0.0
2017-Sep-26 18:58N 32°21' W 090°53'0 0.0
2017-Sep-26 18:28N 32°21' W 090°53'0 0.0
2017-Sep-26 17:58N 32°21' W 090°53'0 0.0
2017-Sep-26 17:28N 32°21' W 090°53'0 0.0
2017-Sep-26 16:58N 32°21' W 090°53'0 0.0
2017-Sep-26 16:28N 32°21' W 090°53'0 0.0
2017-Sep-26 15:58N 32°21' W 090°53'0 0.0
2017-Sep-26 15:28N 32°21' W 090°53'0 0.0
2017-Sep-26 14:58N 32°21' W 090°53'0 0.0
2017-Sep-26 14:28N 32°21' W 090°53'0 0.0
2017-Sep-26 13:58N 32°21' W 090°53'0 0.0
2017-Sep-26 13:28N 32°21' W 090°53'0 0.0
2017-Sep-26 12:58N 32°21' W 090°53'0 0.0
2017-Sep-26 12:31N 32°21' W 090°53'0 0.0
2017-Sep-26 12:01N 32°21' W 090°53'2 3.8
2017-Sep-26 11:31N 32°19' W 090°54'3 5.7
2017-Sep-26 11:01N 32°17' W 090°56'2 4.9
2017-Sep-26 10:31N 32°16' W 090°58'2 4.1
2017-Sep-26 10:01N 32°14' W 090°59'3 5.9
2017-Sep-26 09:30N 32°11' W 090°60'3 5.3
2017-Sep-26 09:01N 32°08' W 091°00'2 4.8
2017-Sep-26 08:30N 32°08' W 091°03'3 5.6
2017-Sep-26 08:01N 32°07' W 091°06'4 9.0
2017-Sep-26 07:31N 32°03' W 091°03'4 8.7
2017-Sep-26 07:00N 31°59' W 091°06'4 7.7
2017-Sep-26 06:27N 31°58' W 091°11'6 7.9
2017-Sep-26 05:45N 31°53' W 091°13'  
2017-Sep-21 02:03N 31°51' W 091°17'114.5
2017-Sep-21 02:00N 31°51' W 091°17'613.0
2017-Sep-21 01:31N 31°56' W 091°12'712.9
2017-Sep-21 00:57N 32°00' W 091°05'612.3
2017-Sep-21 00:29N 32°06' W 091°06'3 5.9
2017-Sep-21 00:00N 32°07' W 091°03'612.5
2017-Sep-20 23:30N 32°13' W 090°59'713.2
2017-Sep-20 23:00N 32°18' W 090°55'3 6.3
2017-Sep-20 22:30N 32°21' W 090°53'0 0.0
2017-Sep-20 21:59N 32°21' W 090°53'0 0.0
2017-Sep-20 21:29N 32°21' W 090°53'0 0.0
2017-Sep-20 20:59N 32°21' W 090°53'0 0.0
2017-Sep-20 20:29N 32°21' W 090°53'0 0.0
2017-Sep-20 19:59N 32°21' W 090°53'0 0.0
2017-Sep-20 19:29N 32°21' W 090°53'0 0.0
2017-Sep-20 18:59N 32°21' W 090°53'0 0.0
2017-Sep-20 18:29N 32°21' W 090°53'0 0.0
2017-Sep-20 17:59N 32°21' W 090°53'0 0.0
2017-Sep-20 17:29N 32°21' W 090°53'0 0.0
2017-Sep-20 16:59N 32°21' W 090°53'0 0.0
2017-Sep-20 16:29N 32°21' W 090°53'0 0.0
2017-Sep-20 15:59N 32°21' W 090°53'0 0.0
2017-Sep-20 15:29N 32°21' W 090°53'0 0.0
2017-Sep-20 14:59N 32°21' W 090°53'0 0.0
2017-Sep-20 13:59N 32°21' W 090°53'0 0.0
2017-Sep-20 13:29N 32°21' W 090°53'0 0.0
2017-Sep-20 12:59N 32°21' W 090°53'0 0.0
2017-Sep-20 12:30N 32°21' W 090°53'0 0.0
2017-Sep-20 12:00N 32°21' W 090°53'1 1.5
2017-Sep-20 11:30N 32°20' W 090°54'4 7.6
2017-Sep-20 11:00N 32°21' W 090°58'3 6.5
2017-Sep-20 10:30N 32°24' W 090°59'4 8.0
2017-Sep-20 10:00N 32°26' W 091°03'4 7.8
2017-Sep-20 09:30N 32°29' W 091°07'4 7.4
2017-Sep-20 08:58N 32°33' W 091°06'4 7.7
2017-Sep-20 08:30N 32°36' W 091°08'9 6.3
2017-Sep-20 07:05N 32°44' W 091°04'1 7.3
2017-Sep-20 06:59N 32°44' W 091°04'4 7.5
2017-Sep-20 06:29N 32°45' W 091°09'4 7.6
2017-Sep-20 05:59N 32°48' W 091°09'  
Track history (hours):
 
Tides and Currents Weather Stations Pressure Air Temp Water Temp Dewpoint Dewpoint Depression Visibility Wind Speed Wind Dir Waves Ship Positions

America

Last reported at 2017-Sep-27 02:41 UTC. Time now 2017-Oct-18 16:20 UTC.
Position N 32°44' W 091°05'.
Warning: this ship's position is 21 days out of date.

Length 80 m; draft 2.4 m.

Type: Passenger vessel. MMSI: 367710540.

Date/timePositionNaut miles runAvg speedWind from/ knotsBaromVisibWave heightAir tempDewpointWater temp
2017-Sep-27 02:41N 32°44' W 091°05'4 6.0
2017-Sep-27 01:59N 32°40' W 091°07'4 7.4
2017-Sep-27 01:31N 32°37' W 091°09'5 8.4
2017-Sep-27 00:54N 32°33' W 091°06'3 7.6
2017-Sep-27 00:31N 32°30' W 091°07'4 8.5
2017-Sep-27 00:01N 32°27' W 091°04'4 8.7
2017-Sep-26 23:30N 32°25' W 090°60'4 7.4
2017-Sep-26 23:00N 32°21' W 090°59'4 8.8
2017-Sep-26 22:30N 32°20' W 090°54'1 1.9
2017-Sep-26 22:00N 32°21' W 090°53'0 0.0
2017-Sep-26 21:28N 32°21' W 090°53'0 0.0
2017-Sep-26 20:58N 32°21' W 090°53'0 0.0
2017-Sep-26 20:28N 32°21' W 090°53'0 0.0
2017-Sep-26 19:58N 32°21' W 090°53'0 0.0
2017-Sep-26 19:28N 32°21' W 090°53'0 0.0
2017-Sep-26 18:58N 32°21' W 090°53'0 0.0
2017-Sep-26 18:28N 32°21' W 090°53'0 0.0
2017-Sep-26 17:58N 32°21' W 090°53'0 0.0
2017-Sep-26 17:28N 32°21' W 090°53'0 0.0
2017-Sep-26 16:58N 32°21' W 090°53'0 0.0
2017-Sep-26 16:28N 32°21' W 090°53'0 0.0
2017-Sep-26 15:58N 32°21' W 090°53'0 0.0
2017-Sep-26 15:28N 32°21' W 090°53'0 0.0
2017-Sep-26 14:58N 32°21' W 090°53'0 0.0
2017-Sep-26 14:28N 32°21' W 090°53'0 0.0
2017-Sep-26 13:58N 32°21' W 090°53'0 0.0
2017-Sep-26 13:28N 32°21' W 090°53'0 0.0
2017-Sep-26 12:58N 32°21' W 090°53'0 0.0
2017-Sep-26 12:31N 32°21' W 090°53'0 0.0
2017-Sep-26 12:01N 32°21' W 090°53'2 3.8
2017-Sep-26 11:31N 32°19' W 090°54'3 5.7
2017-Sep-26 11:01N 32°17' W 090°56'2 4.9
2017-Sep-26 10:31N 32°16' W 090°58'2 4.1
2017-Sep-26 10:01N 32°14' W 090°59'3 5.9
2017-Sep-26 09:30N 32°11' W 090°60'3 5.3
2017-Sep-26 09:01N 32°08' W 091°00'2 4.8
2017-Sep-26 08:30N 32°08' W 091°03'3 5.6
2017-Sep-26 08:01N 32°07' W 091°06'4 9.0
2017-Sep-26 07:31N 32°03' W 091°03'4 8.7
2017-Sep-26 07:00N 31°59' W 091°06'4 7.7
2017-Sep-26 06:27N 31°58' W 091°11'6 7.9
2017-Sep-26 05:45N 31°53' W 091°13'  
2017-Sep-21 02:03N 31°51' W 091°17'114.5
2017-Sep-21 02:00N 31°51' W 091°17'613.0
2017-Sep-21 01:31N 31°56' W 091°12'712.9
2017-Sep-21 00:57N 32°00' W 091°05'612.3
2017-Sep-21 00:29N 32°06' W 091°06'3 5.9
2017-Sep-21 00:00N 32°07' W 091°03'612.5
2017-Sep-20 23:30N 32°13' W 090°59'713.2
2017-Sep-20 23:00N 32°18' W 090°55'3 6.3
2017-Sep-20 22:30N 32°21' W 090°53'0 0.0
2017-Sep-20 21:59N 32°21' W 090°53'0 0.0
2017-Sep-20 21:29N 32°21' W 090°53'0 0.0
2017-Sep-20 20:59N 32°21' W 090°53'0 0.0
2017-Sep-20 20:29N 32°21' W 090°53'0 0.0
2017-Sep-20 19:59N 32°21' W 090°53'0 0.0
2017-Sep-20 19:29N 32°21' W 090°53'0 0.0
2017-Sep-20 18:59N 32°21' W 090°53'0 0.0
2017-Sep-20 18:29N 32°21' W 090°53'0 0.0
2017-Sep-20 17:59N 32°21' W 090°53'0 0.0
2017-Sep-20 17:29N 32°21' W 090°53'0 0.0
2017-Sep-20 16:59N 32°21' W 090°53'0 0.0
2017-Sep-20 16:29N 32°21' W 090°53'0 0.0
2017-Sep-20 15:59N 32°21' W 090°53'0 0.0
2017-Sep-20 15:29N 32°21' W 090°53'0 0.0
2017-Sep-20 14:59N 32°21' W 090°53'0 0.0
2017-Sep-20 13:59N 32°21' W 090°53'0 0.0
2017-Sep-20 13:29N 32°21' W 090°53'0 0.0
2017-Sep-20 12:59N 32°21' W 090°53'0 0.0
2017-Sep-20 12:30N 32°21' W 090°53'0 0.0
2017-Sep-20 12:00N 32°21' W 090°53'1 1.5
2017-Sep-20 11:30N 32°20' W 090°54'4 7.6
2017-Sep-20 11:00N 32°21' W 090°58'3 6.5
2017-Sep-20 10:30N 32°24' W 090°59'4 8.0
2017-Sep-20 10:00N 32°26' W 091°03'4 7.8
2017-Sep-20 09:30N 32°29' W 091°07'4 7.4
2017-Sep-20 08:58N 32°33' W 091°06'4 7.7
2017-Sep-20 08:30N 32°36' W 091°08'9 6.3
2017-Sep-20 07:05N 32°44' W 091°04'1 7.3
2017-Sep-20 06:59N 32°44' W 091°04'4 7.5
2017-Sep-20 06:29N 32°45' W 091°09'4 7.6
2017-Sep-20 05:59N 32°48' W 091°09'  

Dump ship's entire track history